createdAt,value
2018-08-09T00:00:21.411Z,22.50
2018-08-09T00:02:48.687Z,22.40
2018-08-09T00:05:15.997Z,22.40
2018-08-09T00:07:43.354Z,22.40
2018-08-09T00:10:10.629Z,22.40
2018-08-09T00:12:37.909Z,22.40
2018-08-09T00:15:05.305Z,22.30
2018-08-09T00:17:32.619Z,22.30
2018-08-09T00:19:59.870Z,22.40
2018-08-09T00:22:27.155Z,22.40
2018-08-09T00:24:54.450Z,22.40
2018-08-09T00:27:21.708Z,22.40
2018-08-09T00:29:49.000Z,22.40
2018-08-09T00:32:16.423Z,22.40
2018-08-09T00:34:43.816Z,22.40
2018-08-09T00:37:11.077Z,22.40
2018-08-09T00:39:38.394Z,22.30
2018-08-09T00:42:05.726Z,22.20
2018-08-09T00:44:33.029Z,22.20
2018-08-09T00:47:00.318Z,22.20
2018-08-09T00:49:27.634Z,22.10
2018-08-09T00:51:54.943Z,22.20
2018-08-09T00:54:22.263Z,22.20
2018-08-09T00:56:49.593Z,22.20
2018-08-09T00:59:16.858Z,22.20
2018-08-09T01:01:44.158Z,22.30
2018-08-09T01:04:11.404Z,22.20
2018-08-09T01:06:38.704Z,22.10
2018-08-09T01:09:07.797Z,22.00
2018-08-09T01:11:35.985Z,21.90
2018-08-09T01:14:03.503Z,22.00
2018-08-09T01:16:30.880Z,22.00
2018-08-09T01:18:58.182Z,22.00
2018-08-09T01:21:25.514Z,21.90
2018-08-09T01:23:52.904Z,21.70
2018-08-09T01:26:20.291Z,21.70
2018-08-09T01:28:47.597Z,21.60
2018-08-09T01:31:20.026Z,21.60
2018-08-09T01:33:47.357Z,21.60
2018-08-09T01:36:14.690Z,21.60
2018-08-09T01:38:41.937Z,21.60
2018-08-09T01:41:09.298Z,21.60
2018-08-09T01:43:48.273Z,21.60
2018-08-09T01:46:15.589Z,21.60
2018-08-09T01:48:42.918Z,21.50
2018-08-09T01:51:10.222Z,21.40
2018-08-09T01:53:37.487Z,21.30
2018-08-09T01:56:04.895Z,21.40
2018-08-09T01:58:32.205Z,21.40
2018-08-09T02:00:59.501Z,21.30
2018-08-09T02:03:26.790Z,21.30
2018-08-09T02:05:54.082Z,21.30
2018-08-09T02:08:21.377Z,21.20
2018-08-09T02:10:48.667Z,21.20
2018-08-09T02:13:15.996Z,21.20
2018-08-09T02:15:43.293Z,21.10
2018-08-09T02:18:10.844Z,21.10
2018-08-09T02:20:38.102Z,21.00
2018-08-09T02:23:05.447Z,21.00
2018-08-09T02:25:32.822Z,20.90
2018-08-09T02:28:00.139Z,21.00
2018-08-09T02:30:27.406Z,21.10
2018-08-09T02:32:54.683Z,21.00
2018-08-09T02:35:21.971Z,21.00
2018-08-09T02:37:49.239Z,21.00
2018-08-09T02:40:16.631Z,20.90
2018-08-09T02:42:43.863Z,21.00
2018-08-09T02:45:11.146Z,20.90
2018-08-09T02:47:38.439Z,20.90
2018-08-09T02:50:05.710Z,20.90
2018-08-09T02:52:33.034Z,20.90
2018-08-09T02:55:00.292Z,20.90
2018-08-09T02:57:27.634Z,20.90
2018-08-09T02:59:54.927Z,21.00
2018-08-09T03:02:22.258Z,20.80
2018-08-09T03:04:49.515Z,20.80
2018-08-09T03:07:16.873Z,20.70
2018-08-09T03:09:44.168Z,20.60
2018-08-09T03:12:11.462Z,20.40
2018-08-09T03:14:38.729Z,20.30
2018-08-09T03:17:06.009Z,20.30
2018-08-09T03:19:33.287Z,20.20
2018-08-09T03:22:00.529Z,20.10
2018-08-09T03:24:27.831Z,20.20
2018-08-09T03:26:55.086Z,20.20
2018-08-09T03:29:22.353Z,20.20
2018-08-09T03:31:49.670Z,20.20
2018-08-09T03:34:16.942Z,20.10
2018-08-09T03:36:44.194Z,20.10
2018-08-09T03:39:12.059Z,20.10
2018-08-09T03:41:39.413Z,20.10
2018-08-09T03:44:06.805Z,20.20
2018-08-09T03:46:34.142Z,20.30
2018-08-09T03:49:01.434Z,20.30
2018-08-09T03:51:28.707Z,20.40
2018-08-09T03:53:56.018Z,20.30
2018-08-09T03:56:23.353Z,20.30
2018-08-09T03:58:50.629Z,20.30
2018-08-09T04:01:17.905Z,20.30
2018-08-09T04:03:45.182Z,20.30
2018-08-09T04:06:12.478Z,20.40
2018-08-09T04:08:39.791Z,20.40
2018-08-09T04:11:07.298Z,20.40
2018-08-09T04:13:34.578Z,20.30
2018-08-09T04:16:01.854Z,20.30
2018-08-09T04:18:29.262Z,20.30
2018-08-09T04:20:56.546Z,20.40
2018-08-09T04:23:23.770Z,20.40
2018-08-09T04:25:51.082Z,20.40
2018-08-09T04:28:18.376Z,20.40
2018-08-09T04:30:45.761Z,20.50
2018-08-09T04:33:13.002Z,20.50
2018-08-09T04:35:40.275Z,20.50
2018-08-09T04:38:07.534Z,20.50
2018-08-09T04:40:34.814Z,20.50
2018-08-09T04:43:02.477Z,20.60
2018-08-09T04:45:29.879Z,20.60
2018-08-09T04:47:57.146Z,20.60
2018-08-09T04:50:24.419Z,20.60
2018-08-09T04:52:51.718Z,20.70
2018-08-09T04:55:18.967Z,20.90
2018-08-09T04:57:46.246Z,21.00
2018-08-09T05:00:13.518Z,21.20
2018-08-09T05:02:40.869Z,21.40
2018-08-09T05:05:08.126Z,21.70
2018-08-09T05:07:35.410Z,23.00
2018-08-09T05:10:08.671Z,23.90
2018-08-09T05:12:36.430Z,24.80
2018-08-09T05:15:03.786Z,25.60
2018-08-09T05:17:31.374Z,26.40
2018-08-09T05:19:58.690Z,26.70
2018-08-09T05:22:26.054Z,27.40
2018-08-09T05:24:53.334Z,27.60
2018-08-09T05:27:20.630Z,27.00
2018-08-09T05:29:47.919Z,26.00
2018-08-09T05:32:15.175Z,25.50
2018-08-09T05:34:42.420Z,25.20
2018-08-09T05:37:09.697Z,24.80
2018-08-09T05:39:36.974Z,24.50
2018-08-09T05:42:04.241Z,24.30
2018-08-09T05:44:31.502Z,24.10
2018-08-09T05:46:59.191Z,23.90
2018-08-09T05:49:26.485Z,23.90
2018-08-09T05:51:53.741Z,23.80
2018-08-09T05:54:21.015Z,23.70
2018-08-09T05:56:48.293Z,23.70
2018-08-09T05:59:15.557Z,23.60
2018-08-09T06:01:42.834Z,23.60
2018-08-09T06:04:10.097Z,23.60
2018-08-09T06:06:37.394Z,23.60
2018-08-09T06:09:07.203Z,23.60
2018-08-09T06:11:34.493Z,23.60
2018-08-09T06:14:01.764Z,23.50
2018-08-09T06:16:29.044Z,23.50
2018-08-09T06:18:56.401Z,23.60
2018-08-09T06:21:23.637Z,23.60
2018-08-09T06:23:50.892Z,23.70
2018-08-09T06:26:18.223Z,23.70
2018-08-09T06:28:45.543Z,23.60
2018-08-09T06:31:12.826Z,23.60
2018-08-09T06:33:40.158Z,23.60
2018-08-09T06:36:07.477Z,23.70
2018-08-09T06:38:34.767Z,23.70
2018-08-09T06:41:02.059Z,23.70
2018-08-09T06:43:29.393Z,23.70
2018-08-09T06:45:56.813Z,23.70
2018-08-09T06:48:24.094Z,23.80
2018-08-09T06:50:51.478Z,23.90
2018-08-09T06:53:18.827Z,23.90
2018-08-09T06:55:46.094Z,23.80
2018-08-09T06:58:13.385Z,23.90
2018-08-09T07:00:40.670Z,23.90
2018-08-09T07:03:09.255Z,23.90
2018-08-09T07:05:36.659Z,23.80
2018-08-09T07:08:03.946Z,23.80
2018-08-09T07:10:31.197Z,23.80
2018-08-09T07:12:58.455Z,23.80
2018-08-09T07:15:26.203Z,23.80
2018-08-09T07:17:53.461Z,24.20
2018-08-09T07:20:21.985Z,24.00
2018-08-09T07:22:49.326Z,24.30
2018-08-09T07:25:16.584Z,24.40
2018-08-09T07:27:43.906Z,24.40
2018-08-09T07:30:12.294Z,24.60
2018-08-09T07:32:39.689Z,24.70
2018-08-09T07:35:07.313Z,24.80
2018-08-09T07:37:34.630Z,24.90
2018-08-09T07:40:02.006Z,24.90
2018-08-09T07:42:29.285Z,25.00
2018-08-09T07:44:56.538Z,25.10
2018-08-09T07:47:23.832Z,25.20
2018-08-09T07:49:51.158Z,25.20
2018-08-09T07:52:18.489Z,25.30
2018-08-09T07:54:45.876Z,25.30
2018-08-09T07:57:13.161Z,25.40
2018-08-09T07:59:40.488Z,25.40
2018-08-09T08:02:07.974Z,25.50
2018-08-09T08:04:35.303Z,25.70
2018-08-09T08:07:02.812Z,25.70
2018-08-09T08:09:30.111Z,25.80
2018-08-09T08:11:57.570Z,25.80
2018-08-09T08:14:24.854Z,26.00
2018-08-09T08:16:52.435Z,26.00
2018-08-09T08:19:19.742Z,26.20
2018-08-09T08:21:47.038Z,26.20
2018-08-09T08:24:14.339Z,26.50
2018-08-09T08:26:41.690Z,26.60
2018-08-09T08:29:08.927Z,26.80
2018-08-09T08:31:37.414Z,26.90
2018-08-09T08:34:04.806Z,27.00
2018-08-09T08:36:32.386Z,27.10
2018-08-09T08:38:59.677Z,27.20
2018-08-09T08:41:28.018Z,27.20
2018-08-09T08:43:55.266Z,27.20
2018-08-09T08:46:22.533Z,27.20
2018-08-09T08:48:50.239Z,27.40
2018-08-09T08:51:17.493Z,27.40
2018-08-09T08:53:44.778Z,27.60
2018-08-09T08:56:12.018Z,27.60
2018-08-09T08:58:39.292Z,27.70
2018-08-09T09:01:06.641Z,27.80
2018-08-09T09:03:33.896Z,27.80
2018-08-09T09:06:01.195Z,27.90
2018-08-09T09:08:29.238Z,28.00
2018-08-09T09:10:57.118Z,28.10
2018-08-09T09:13:25.644Z,28.20
2018-08-09T09:15:53.082Z,28.20
2018-08-09T09:18:20.578Z,28.30
2018-08-09T09:20:47.974Z,28.30
2018-08-09T09:23:15.291Z,28.40
2018-08-09T09:25:42.573Z,28.40
2018-08-09T09:28:11.080Z,28.50
2018-08-09T09:30:39.662Z,28.60
2018-08-09T09:33:06.917Z,28.70
2018-08-09T09:35:34.166Z,28.70
2018-08-09T09:38:02.389Z,28.70
2018-08-09T09:40:30.946Z,28.70
2018-08-09T09:42:58.255Z,28.90
2018-08-09T09:45:26.247Z,29.00
2018-08-09T09:47:53.739Z,29.10
2018-08-09T09:50:21.158Z,29.00
2018-08-09T09:52:48.498Z,29.00
2018-08-09T09:55:15.803Z,29.10
2018-08-09T09:57:43.061Z,29.20
2018-08-09T10:00:16.659Z,29.30
2018-08-09T10:02:44.362Z,29.20
2018-08-09T10:05:11.701Z,29.30
2018-08-09T10:07:40.402Z,29.50
2018-08-09T10:10:09.648Z,29.60
2018-08-09T10:12:36.986Z,29.60
2018-08-09T10:15:04.302Z,29.70
2018-08-09T10:17:31.922Z,29.80
2018-08-09T10:19:59.203Z,29.90
2018-08-09T10:22:26.853Z,29.90
2018-08-09T10:24:54.147Z,29.80
2018-08-09T10:27:21.486Z,29.70
2018-08-09T10:29:48.964Z,29.80
2018-08-09T10:32:16.233Z,30.00
2018-08-09T10:34:43.466Z,30.10
2018-08-09T10:37:11.827Z,30.10
2018-08-09T10:39:39.089Z,30.10
2018-08-09T10:42:07.183Z,30.00
2018-08-09T10:44:34.450Z,30.10
2018-08-09T10:47:02.713Z,30.10
2018-08-09T10:49:30.222Z,30.10
2018-08-09T10:51:57.537Z,30.20
2018-08-09T10:54:24.799Z,30.10
2018-08-09T10:56:53.746Z,30.20
2018-08-09T10:59:21.030Z,30.30
2018-08-09T11:01:49.077Z,30.30
2018-08-09T11:04:16.333Z,30.30
2018-08-09T11:06:43.633Z,30.30
2018-08-09T11:09:11.834Z,30.20
2018-08-09T11:11:40.174Z,30.30
2018-08-09T11:14:07.508Z,30.40
2018-08-09T11:16:35.168Z,30.40
2018-08-09T11:19:02.482Z,30.30
2018-08-09T11:21:29.789Z,30.30
2018-08-09T11:23:57.412Z,30.30
2018-08-09T11:26:24.830Z,30.30
2018-08-09T11:28:52.159Z,30.20
2018-08-09T11:31:19.481Z,30.20
2018-08-09T11:33:46.757Z,30.50
2018-08-09T11:36:14.036Z,30.50
2018-08-09T11:38:41.326Z,30.40
2018-08-09T11:41:10.258Z,30.60
2018-08-09T11:43:37.657Z,30.70
2018-08-09T11:46:07.153Z,30.80
2018-08-09T11:48:34.686Z,30.90
2018-08-09T11:51:02.032Z,31.10
2018-08-09T11:53:29.811Z,31.20
2018-08-09T11:55:57.098Z,31.30
2018-08-09T11:58:25.547Z,31.30
2018-08-09T12:00:52.855Z,31.40
2018-08-09T12:03:20.150Z,31.50
2018-08-09T12:05:47.409Z,31.50
2018-08-09T12:08:14.710Z,31.70
2018-08-09T12:10:42.020Z,31.70
2018-08-09T12:13:10.071Z,31.70
2018-08-09T12:15:37.468Z,31.70
2018-08-09T12:18:04.850Z,31.70
2018-08-09T12:20:32.371Z,31.80
2018-08-09T12:22:59.790Z,31.80
2018-08-09T12:25:27.090Z,31.90
2018-08-09T12:27:54.406Z,31.80
2018-08-09T12:30:21.704Z,31.90
2018-08-09T12:32:50.048Z,32.00
2018-08-09T12:35:17.361Z,32.00
2018-08-09T12:37:44.604Z,32.10
2018-08-09T12:40:12.606Z,32.10
2018-08-09T12:42:41.041Z,32.20
2018-08-09T12:45:11.065Z,32.20
2018-08-09T12:47:38.987Z,32.10
2018-08-09T12:50:10.886Z,32.20
2018-08-09T12:52:38.735Z,32.20
2018-08-09T12:55:06.641Z,32.30
2018-08-09T12:57:33.922Z,32.20
2018-08-09T13:00:01.749Z,32.30
2018-08-09T13:02:28.963Z,32.30
2018-08-09T13:04:58.558Z,32.30
2018-08-09T13:07:25.865Z,32.20
2018-08-09T13:09:53.246Z,32.10
2018-08-09T13:12:20.549Z,32.20
2018-08-09T13:14:47.954Z,32.20
2018-08-09T13:17:15.270Z,32.20
2018-08-09T13:19:42.606Z,32.30
2018-08-09T13:22:10.969Z,32.20
2018-08-09T13:24:38.270Z,32.30
2018-08-09T13:27:05.582Z,32.30
2018-08-09T13:29:32.982Z,32.20
2018-08-09T13:32:00.835Z,32.10
2018-08-09T13:34:28.225Z,32.00
2018-08-09T13:36:55.629Z,31.90
2018-08-09T13:39:23.139Z,31.80
2018-08-09T13:41:50.439Z,31.70
2018-08-09T13:44:17.703Z,31.70
2018-08-09T13:46:45.058Z,31.70
2018-08-09T13:49:12.362Z,31.70
2018-08-09T13:51:40.074Z,31.60
2018-08-09T13:54:07.505Z,31.60
2018-08-09T13:56:35.022Z,31.50
2018-08-09T13:59:02.886Z,31.50
2018-08-09T14:01:30.303Z,31.30
2018-08-09T14:03:57.767Z,31.20
2018-08-09T14:06:25.118Z,31.10
2018-08-09T14:08:52.464Z,31.10
2018-08-09T14:11:19.767Z,31.00
2018-08-09T14:13:47.090Z,30.90
2018-08-09T14:16:14.391Z,30.50
2018-08-09T14:18:41.735Z,29.40
2018-08-09T14:21:09.025Z,28.50
2018-08-09T14:23:36.406Z,28.00
2018-08-09T14:26:03.698Z,27.40
2018-08-09T14:28:31.031Z,26.90
2018-08-09T14:30:58.358Z,26.40
2018-08-09T14:33:25.646Z,26.20
2018-08-09T14:35:52.961Z,26.00
2018-08-09T14:38:20.261Z,25.80
2018-08-09T14:40:47.716Z,25.80
2018-08-09T14:43:15.064Z,25.80
2018-08-09T14:45:42.394Z,25.60
2018-08-09T14:48:10.287Z,25.50
2018-08-09T14:50:37.660Z,25.50
2018-08-09T14:53:05.106Z,25.40
2018-08-09T14:55:32.418Z,25.20
2018-08-09T14:57:59.825Z,25.20
2018-08-09T15:00:27.231Z,25.10
2018-08-09T15:02:54.506Z,25.20
2018-08-09T15:05:21.807Z,25.30
2018-08-09T15:07:49.112Z,25.20
2018-08-09T15:10:17.293Z,25.20
2018-08-09T15:12:44.679Z,25.30
2018-08-09T15:15:12.174Z,25.40
2018-08-09T15:17:39.902Z,25.60
2018-08-09T15:20:09.059Z,25.60
2018-08-09T15:22:36.592Z,25.60
2018-08-09T15:25:04.902Z,25.60
2018-08-09T15:27:32.215Z,25.40
2018-08-09T15:29:59.662Z,25.30
2018-08-09T15:32:26.988Z,25.20
2018-08-09T15:34:54.350Z,25.10
2018-08-09T15:37:21.616Z,25.10
2018-08-09T15:39:48.914Z,25.00
2018-08-09T15:42:16.242Z,24.80
2018-08-09T15:44:43.499Z,24.80
2018-08-09T15:47:10.974Z,24.70
2018-08-09T15:49:38.207Z,24.60
2018-08-09T15:52:05.672Z,24.50
2018-08-09T15:54:33.145Z,24.40
2018-08-09T15:57:00.542Z,24.30
2018-08-09T15:59:27.867Z,24.20
2018-08-09T16:01:55.177Z,24.10
2018-08-09T16:04:22.622Z,24.20
2018-08-09T16:06:49.947Z,24.10
2018-08-09T16:09:17.571Z,24.20
2018-08-09T16:11:45.044Z,24.20
2018-08-09T16:14:12.383Z,24.30
2018-08-09T16:16:39.756Z,24.30
2018-08-09T16:19:07.529Z,24.30
2018-08-09T16:21:34.828Z,24.20
2018-08-09T16:24:02.543Z,24.10
2018-08-09T16:26:36.686Z,24.20
2018-08-09T16:29:05.231Z,24.30
2018-08-09T16:31:33.140Z,24.30
2018-08-09T16:34:00.635Z,24.40
2018-08-09T16:36:27.906Z,24.40
2018-08-09T16:38:55.197Z,24.50
2018-08-09T16:41:22.559Z,24.40
2018-08-09T16:43:49.872Z,24.30
2018-08-09T16:46:18.335Z,24.30
2018-08-09T16:48:45.589Z,24.20
2018-08-09T16:51:12.910Z,24.30
2018-08-09T16:53:40.207Z,24.20
2018-08-09T16:56:07.576Z,24.30
2018-08-09T16:58:34.949Z,24.30
2018-08-09T17:01:02.274Z,24.30
2018-08-09T17:03:29.651Z,24.30
2018-08-09T17:05:57.022Z,24.40
2018-08-09T17:08:24.357Z,24.40
2018-08-09T17:10:51.750Z,24.30
2018-08-09T17:13:19.082Z,24.30
2018-08-09T17:15:46.378Z,24.20
2018-08-09T17:18:13.738Z,24.20
2018-08-09T17:20:41.111Z,24.10
2018-08-09T17:23:08.679Z,24.20
2018-08-09T17:25:36.066Z,24.10
2018-08-09T17:28:03.371Z,24.10
2018-08-09T17:30:30.642Z,24.00
2018-08-09T17:32:58.303Z,23.90
2018-08-09T17:35:25.611Z,23.90
2018-08-09T17:37:53.507Z,23.80
2018-08-09T17:40:22.972Z,23.80
2018-08-09T17:42:51.414Z,23.80
2018-08-09T17:45:20.722Z,23.90
2018-08-09T17:47:48.029Z,23.80
2018-08-09T17:50:15.338Z,23.90
2018-08-09T17:52:42.702Z,23.90
2018-08-09T17:55:13.926Z,23.90
2018-08-09T17:57:42.170Z,23.90
2018-08-09T18:00:12.522Z,23.90
2018-08-09T18:02:39.941Z,23.90
2018-08-09T18:05:08.510Z,24.00
2018-08-09T18:07:36.332Z,23.90
2018-08-09T18:10:06.174Z,23.90
2018-08-09T18:12:33.558Z,23.90
2018-08-09T18:15:01.047Z,23.90
2018-08-09T18:17:28.356Z,23.80
2018-08-09T18:19:55.665Z,23.80
2018-08-09T18:22:23.069Z,23.70
2018-08-09T18:24:50.382Z,23.60
2018-08-09T18:27:17.681Z,23.60
2018-08-09T18:29:44.980Z,23.60
2018-08-09T18:32:12.330Z,23.60
2018-08-09T18:34:39.748Z,23.60
2018-08-09T18:37:08.242Z,23.40
2018-08-09T18:39:35.601Z,23.40
2018-08-09T18:42:03.023Z,23.30
2018-08-09T18:44:30.294Z,23.30
2018-08-09T18:46:57.781Z,23.30
2018-08-09T18:49:25.134Z,23.30
2018-08-09T18:51:52.472Z,23.20
2018-08-09T18:54:19.834Z,23.20
2018-08-09T18:56:47.154Z,23.20
2018-08-09T18:59:14.485Z,23.20
2018-08-09T19:01:41.789Z,23.20
2018-08-09T19:04:09.250Z,23.10
2018-08-09T19:06:36.696Z,23.10
2018-08-09T19:09:06.554Z,23.10
2018-08-09T19:11:33.969Z,23.10
2018-08-09T19:14:01.313Z,23.00
2018-08-09T19:16:28.682Z,23.10
2018-08-09T19:18:56.186Z,23.00
2018-08-09T19:21:23.458Z,23.00
2018-08-09T19:23:50.767Z,23.00
2018-08-09T19:26:18.133Z,23.00
2018-08-09T19:28:45.438Z,22.90
2018-08-09T19:31:12.787Z,22.90
2018-08-09T19:33:40.304Z,22.90
2018-08-09T19:36:07.598Z,22.90
2018-08-09T19:38:35.400Z,22.90
2018-08-09T19:41:02.736Z,22.90
2018-08-09T19:43:30.063Z,22.70
2018-08-09T19:45:57.435Z,22.70
2018-08-09T19:48:24.833Z,22.80
2018-08-09T19:50:52.198Z,22.80
2018-08-09T19:53:19.601Z,22.80
2018-08-09T19:55:47.018Z,22.80
2018-08-09T19:58:14.346Z,22.80
2018-08-09T20:00:41.690Z,22.80
2018-08-09T20:03:08.975Z,22.80
2018-08-09T20:05:36.409Z,22.80
2018-08-09T20:08:03.694Z,22.70
2018-08-09T20:10:31.162Z,22.70
2018-08-09T20:12:58.561Z,22.70
2018-08-09T20:15:25.908Z,22.70
2018-08-09T20:17:53.204Z,22.70
2018-08-09T20:20:22.471Z,22.70
2018-08-09T20:22:49.911Z,22.60
2018-08-09T20:25:17.236Z,22.60
2018-08-09T20:27:45.195Z,22.50
2018-08-09T20:30:14.478Z,22.50
2018-08-09T20:32:42.606Z,22.50
2018-08-09T20:35:13.492Z,22.40
2018-08-09T20:38:22.898Z,22.40
2018-08-09T20:40:50.162Z,22.40
2018-08-09T20:43:17.487Z,22.40
2018-08-09T20:45:44.790Z,22.30
2018-08-09T20:48:12.370Z,22.30
2018-08-09T20:50:39.686Z,22.30
2018-08-09T20:53:07.154Z,22.20
2018-08-09T20:55:34.574Z,22.10
2018-08-09T20:58:01.972Z,22.10
2018-08-09T21:00:30.862Z,22.10
2018-08-09T21:02:59.290Z,22.10
2018-08-09T21:05:29.290Z,22.10
2018-08-09T21:07:57.055Z,22.00
2018-08-09T21:10:24.750Z,22.10
2018-08-09T21:12:52.199Z,22.00
2018-08-09T21:15:20.099Z,22.00
2018-08-09T21:17:47.381Z,21.90
2018-08-09T21:20:14.905Z,21.90
2018-08-09T21:22:43.150Z,22.00
2018-08-09T21:25:11.152Z,22.00
2018-08-09T21:27:38.599Z,22.00
2018-08-09T21:30:07.296Z,22.00
2018-08-09T21:32:34.892Z,21.90
2018-08-09T21:35:02.346Z,21.90
2018-08-09T21:37:29.658Z,21.90
2018-08-09T21:39:57.177Z,21.80
2018-08-09T21:42:24.582Z,21.80
2018-08-09T21:44:51.966Z,21.90
2018-08-09T21:47:19.325Z,21.80
2018-08-09T21:49:46.673Z,21.90
2018-08-09T21:52:13.911Z,21.80
2018-08-09T21:54:41.297Z,21.80
2018-08-09T21:57:08.599Z,21.80
2018-08-09T21:59:36.346Z,21.80
2018-08-09T22:02:03.722Z,21.60
2018-08-09T22:04:31.055Z,21.80
2018-08-09T22:07:04.327Z,21.80
2018-08-09T22:09:37.278Z,21.80
2018-08-09T22:12:10.162Z,21.80
2018-08-09T22:14:43.050Z,21.80
2018-08-09T22:17:16.044Z,21.70
2018-08-09T22:19:49.116Z,21.80
2018-08-09T22:22:20.974Z,21.80
2018-08-09T22:24:48.239Z,21.70
2018-08-09T22:27:15.554Z,21.70
2018-08-09T22:29:42.830Z,21.80
2018-08-09T22:32:10.542Z,21.80
2018-08-09T22:34:38.014Z,21.80
2018-08-09T22:37:05.427Z,21.80
2018-08-09T22:39:32.816Z,21.80
2018-08-09T22:42:00.082Z,21.80
2018-08-09T22:44:27.378Z,21.70
2018-08-09T22:46:54.647Z,21.80
2018-08-09T22:49:21.974Z,21.70
2018-08-09T22:51:49.254Z,21.70
2018-08-09T22:54:16.553Z,21.70
2018-08-09T22:56:43.828Z,21.70
2018-08-09T22:59:11.261Z,21.70
2018-08-09T23:01:38.529Z,21.70
2018-08-09T23:04:06.190Z,21.60
2018-08-09T23:06:33.465Z,21.70
2018-08-09T23:09:00.851Z,21.80
2018-08-09T23:11:28.230Z,21.80
2018-08-09T23:13:55.502Z,21.70
2018-08-09T23:16:22.799Z,21.70
2018-08-09T23:18:50.077Z,21.80
2018-08-09T23:21:17.370Z,21.70
2018-08-09T23:23:44.666Z,21.70
2018-08-09T23:26:11.963Z,21.60
2018-08-09T23:28:39.346Z,21.60
2018-08-09T23:31:06.760Z,21.50
2018-08-09T23:33:34.133Z,21.50
2018-08-09T23:36:01.422Z,21.50
2018-08-09T23:38:28.905Z,21.50
2018-08-09T23:40:56.185Z,21.40
2018-08-09T23:43:23.654Z,21.50
2018-08-09T23:45:50.986Z,21.40
2018-08-09T23:48:18.305Z,21.40
2018-08-09T23:50:45.586Z,21.40
2018-08-09T23:53:12.903Z,21.30
2018-08-09T23:55:40.293Z,21.30
2018-08-09T23:58:07.598Z,21.30
